»·PEaware :: AAL9792 KABQ-KROW

AAL9792 :: KABQ-KROW

FLIGHT INFORMATION

Flight Status: Arrived
Operator:
American Airlines
More flights by this operator :: More flights under this callsign
Pilot: Drew L. (13237)
Aircraft: MCDONNELL-DOUGLAS MD-83
(MD83)
More flights by this aircraft type
Origin: KABQ Albuquerque Intl Sunport
United States
Destination: KROW Roswell Industrial
United States
More flights between these airports :: More routes between these airports
Route: +MNZNO3 CME
File this flight plan on PilotEdge
Remarks: PBN / A1B2 DOF / 181014 REG / N883SB OPR / AAL PER / C RMK / TCAS SIMBRIEF
Altitude:
(Current/Filed)
23,000ft
Speed:
(Current/Filed)
380kts
Departed: 13-Oct-18 08:40 PM
Arrived: 13-Oct-18 09:22 PM
Distance/Time
Traveled:
147nm/0:41
Distance/Time
To Go:
Arrived

Flight Plot

Page will automatically refresh every two minutes.

Flight plan parsing failed; only flown route is shown


Map Options




Map Legend


Flown Route
Filed Route
Departure Airport
Arrival Airport
Navaid (VOR, NDB)
Fix

Horizontal Profiles

Position Reports

Time Latitude Longitude Heading Altitude Ground
Speed
13-Oct-18 20:10 35.046823 -106.615400 11 5322ft 0kts
13-Oct-18 20:11 35.046823 -106.615400 11 5322ft 0kts
13-Oct-18 20:12 35.046823 -106.615400 11 5322ft 0kts
13-Oct-18 20:13 35.046823 -106.615400 11 5322ft 0kts
13-Oct-18 20:14 35.046823 -106.615400 11 5322ft 0kts
13-Oct-18 20:15 35.046823 -106.615400 11 5322ft 0kts
13-Oct-18 20:16 35.046823 -106.615400 11 5322ft 0kts
13-Oct-18 20:17 35.046823 -106.615400 11 5322ft 0kts
13-Oct-18 20:18 35.046823 -106.615400 11 5322ft 0kts
13-Oct-18 20:19 35.046823 -106.615400 11 5322ft 0kts
13-Oct-18 20:20 35.046823 -106.615400 11 5322ft 0kts
13-Oct-18 20:21 35.046823 -106.615400 11 5322ft 0kts
13-Oct-18 20:22 35.046823 -106.615400 11 5322ft 0kts
13-Oct-18 20:23 35.046823 -106.615400 11 5321ft 0kts
13-Oct-18 20:24 35.046823 -106.615400 11 5321ft 0kts
13-Oct-18 20:25 35.046823 -106.615400 11 5321ft 0kts
13-Oct-18 20:26 35.046823 -106.615400 11 5321ft 0kts
13-Oct-18 20:27 35.046823 -106.615400 11 5321ft 0kts
13-Oct-18 20:28 35.046823 -106.615400 11 5321ft 0kts
13-Oct-18 20:29 35.046559 -106.615466 11 5321ft 2kts
13-Oct-18 20:30 35.046135 -106.615216 282 5321ft 2kts
13-Oct-18 20:31 35.046122 -106.615001 268 5321ft 0kts
13-Oct-18 20:32 35.046122 -106.615001 269 5321ft 0kts
13-Oct-18 20:33 35.046122 -106.615001 269 5321ft 0kts
13-Oct-18 20:34 35.046122 -106.615001 269 5321ft 0kts
13-Oct-18 20:35 35.046122 -106.615001 269 5321ft 0kts
13-Oct-18 20:36 35.046122 -106.615002 269 5321ft 0kts
13-Oct-18 20:37 35.045933 -106.616121 235 5321ft 0kts
13-Oct-18 20:38 35.045552 -106.616979 266 5321ft 9kts
13-Oct-18 20:39 35.045514 -106.621146 238 5321ft 5kts
13-Oct-18 20:40 35.044422 -106.621368 144 5321ft 8kts
13-Oct-18 20:41 35.044347 -106.621057 89 5321ft 0kts
13-Oct-18 20:42 35.044297 -106.614568 91 5322ft 114kts
13-Oct-18 20:43 35.037483 -106.551290 128 8021ft 223kts
13-Oct-18 20:44 34.984138 -106.508581 163 11496ft 242kts
13-Oct-18 20:45 34.912799 -106.513522 185 13897ft 288kts
13-Oct-18 20:46 34.829441 -106.517226 172 17197ft 314kts
13-Oct-18 20:47 34.769318 -106.434694 112 18656ft 400kts
13-Oct-18 20:48 34.724899 -106.304450 118 20887ft 431kts
13-Oct-18 20:49 34.676322 -106.173453 120 22912ft 425kts
13-Oct-18 20:50 34.625719 -106.043886 120 22945ft 428kts
13-Oct-18 20:51 34.574936 -105.913191 120 22946ft 429kts
13-Oct-18 20:52 34.524219 -105.782281 120 22964ft 429kts
13-Oct-18 20:53 34.473611 -105.652211 124 22987ft 426kts
13-Oct-18 20:54 34.387265 -105.568058 155 23059ft 398kts
13-Oct-18 20:55 34.294623 -105.494572 153 22411ft 401kts
13-Oct-18 20:56 34.203778 -105.420436 152 20930ft 388kts
13-Oct-18 20:57 34.115836 -105.348531 152 19459ft 379kts
13-Oct-18 20:58 34.029858 -105.278094 152 18598ft 375kts
13-Oct-18 20:59 33.946582 -105.204233 146 17076ft 369kts
13-Oct-18 21:00 33.867977 -105.128703 146 15495ft 359kts
13-Oct-18 21:01 33.791829 -105.055958 145 13695ft 346kts
13-Oct-18 21:02 33.717770 -104.985208 145 11894ft 337kts
13-Oct-18 21:03 33.645940 -104.916486 144 10075ft 319kts
13-Oct-18 21:04 33.579217 -104.852603 144 8255ft 297kts
13-Oct-18 21:05 33.517199 -104.793225 144 6990ft 264kts
13-Oct-18 21:06 33.464694 -104.742953 145 6990ft 228kts
13-Oct-18 21:07 33.418650 -104.698877 145 6998ft 204kts
13-Oct-18 21:08 33.374345 -104.656474 145 7001ft 204kts
13-Oct-18 21:09 33.335795 -104.611229 103 6975ft 203kts
13-Oct-18 21:10 33.347648 -104.544536 78 7001ft 206kts
13-Oct-18 21:11 33.359368 -104.477247 79 7001ft 206kts
13-Oct-18 21:12 33.383333 -104.418377 36 7012ft 205kts
13-Oct-18 21:13 33.427480 -104.375039 24 6979ft 203kts
13-Oct-18 21:14 33.481568 -104.376543 350 7002ft 196kts
13-Oct-18 21:15 33.535921 -104.379852 10 6967ft 201kts
13-Oct-18 21:16 33.541634 -104.326797 150 6994ft 192kts
13-Oct-18 21:17 33.491854 -104.324605 189 6892ft 180kts
13-Oct-18 21:18 33.447311 -104.341876 223 5834ft 166kts
13-Oct-18 21:19 33.416011 -104.381813 225 4822ft 164kts
13-Oct-18 21:20 33.384203 -104.419366 225 4245ft 148kts
13-Oct-18 21:21 33.359259 -104.449394 225 3998ft 119kts
13-Oct-18 21:22 33.336088 -104.477124 225 4000ft 118kts
13-Oct-18 21:23 33.312020 -104.505881 225 3707ft 131kts
13-Oct-18 21:24 33.295144 -104.526093 225 3657ft 40kts
13-Oct-18 21:25 33.294551 -104.530317 10 3662ft 20kts

Navigation Log

Ident Type
Flight plan parsing failed, navigation log unavailable